sensor_id;sensor_type;location;lat;lon;timestamp;P1;durP1;ratioP1;P2;durP2;ratioP2
71606;SDS011;60641;53.556;9.914;2022-09-29T00:02:16;12.90;;;6.00;;
71606;SDS011;60641;53.556;9.914;2022-09-29T00:04:43;12.00;;;6.10;;
71606;SDS011;60641;53.556;9.914;2022-09-29T00:07:09;14.80;;;6.20;;
71606;SDS011;60641;53.556;9.914;2022-09-29T00:09:36;13.40;;;6.60;;
71606;SDS011;60641;53.556;9.914;2022-09-29T00:12:02;11.70;;;5.70;;
71606;SDS011;60641;53.556;9.914;2022-09-29T00:14:29;15.80;;;5.90;;
71606;SDS011;60641;53.556;9.914;2022-09-29T00:16:55;12.40;;;6.00;;
71606;SDS011;60641;53.556;9.914;2022-09-29T00:19:22;11.70;;;5.90;;
71606;SDS011;60641;53.556;9.914;2022-09-29T00:21:48;13.60;;;6.50;;
71606;SDS011;60641;53.556;9.914;2022-09-29T00:24:15;12.40;;;6.30;;
71606;SDS011;60641;53.556;9.914;2022-09-29T00:26:41;12.20;;;6.20;;
71606;SDS011;60641;53.556;9.914;2022-09-29T00:29:09;12.90;;;6.40;;
71606;SDS011;60641;53.556;9.914;2022-09-29T00:31:36;11.70;;;5.50;;
71606;SDS011;60641;53.556;9.914;2022-09-29T00:34:02;11.40;;;5.90;;
71606;SDS011;60641;53.556;9.914;2022-09-29T00:36:29;13.30;;;6.00;;
71606;SDS011;60641;53.556;9.914;2022-09-29T00:38:56;13.10;;;6.40;;
71606;SDS011;60641;53.556;9.914;2022-09-29T00:41:24;14.20;;;6.20;;
71606;SDS011;60641;53.556;9.914;2022-09-29T00:49:23;12.80;;;5.90;;
71606;SDS011;60641;53.556;9.914;2022-09-29T00:52:08;11.90;;;5.60;;
71606;SDS011;60641;53.556;9.914;2022-09-29T00:54:41;13.00;;;5.90;;
71606;SDS011;60641;53.556;9.914;2022-09-29T00:57:10;12.40;;;6.20;;
71606;SDS011;60641;53.556;9.914;2022-09-29T01:02:12;12.50;;;6.00;;
71606;SDS011;60641;53.556;9.914;2022-09-29T01:04:39;11.10;;;6.00;;
71606;SDS011;60641;53.556;9.914;2022-09-29T01:07:06;12.10;;;6.00;;
71606;SDS011;60641;53.556;9.914;2022-09-29T01:09:35;12.60;;;5.60;;
71606;SDS011;60641;53.556;9.914;2022-09-29T01:12:03;12.60;;;6.00;;
71606;SDS011;60641;53.556;9.914;2022-09-29T01:14:30;13.10;;;5.70;;
71606;SDS011;60641;53.556;9.914;2022-09-29T01:16:58;13.00;;;6.20;;
71606;SDS011;60641;53.556;9.914;2022-09-29T01:35:31;11.30;;;5.50;;
71606;SDS011;60641;53.556;9.914;2022-09-29T01:46:58;10.90;;;5.10;;
71606;SDS011;60641;53.556;9.914;2022-09-29T01:49:30;11.20;;;5.70;;
71606;SDS011;60641;53.556;9.914;2022-09-29T01:54:43;11.90;;;5.40;;
71606;SDS011;60641;53.556;9.914;2022-09-29T02:00:10;13.10;;;5.90;;
71606;SDS011;60641;53.556;9.914;2022-09-29T02:05:09;11.50;;;5.40;;
71606;SDS011;60641;53.556;9.914;2022-09-29T02:07:42;11.00;;;5.90;;
71606;SDS011;60641;53.556;9.914;2022-09-29T02:10:44;11.40;;;5.70;;
71606;SDS011;60641;53.556;9.914;2022-09-29T02:13:06;11.20;;;5.60;;
71606;SDS011;60641;53.556;9.914;2022-09-29T02:15:34;10.20;;;5.50;;
71606;SDS011;60641;53.556;9.914;2022-09-29T02:18:05;14.00;;;5.90;;
71606;SDS011;60641;53.556;9.914;2022-09-29T02:20:38;10.70;;;5.40;;
71606;SDS011;60641;53.556;9.914;2022-09-29T02:23:04;11.80;;;5.60;;
71606;SDS011;60641;53.556;9.914;2022-09-29T02:25:31;13.40;;;5.70;;
71606;SDS011;60641;53.556;9.914;2022-09-29T02:28:00;11.30;;;5.80;;
71606;SDS011;60641;53.556;9.914;2022-09-29T02:30:27;12.20;;;5.80;;
71606;SDS011;60641;53.556;9.914;2022-09-29T02:32:53;12.30;;;6.00;;
71606;SDS011;60641;53.556;9.914;2022-09-29T02:35:20;12.70;;;5.50;;
71606;SDS011;60641;53.556;9.914;2022-09-29T02:43:27;12.10;;;5.50;;
71606;SDS011;60641;53.556;9.914;2022-09-29T02:54:46;12.70;;;5.90;;
71606;SDS011;60641;53.556;9.914;2022-09-29T02:57:25;13.40;;;5.90;;
71606;SDS011;60641;53.556;9.914;2022-09-29T03:00:05;14.20;;;6.60;;
71606;SDS011;60641;53.556;9.914;2022-09-29T03:02:35;15.10;;;5.80;;
71606;SDS011;60641;53.556;9.914;2022-09-29T03:05:03;13.70;;;6.30;;
71606;SDS011;60641;53.556;9.914;2022-09-29T03:07:31;13.00;;;6.20;;
71606;SDS011;60641;53.556;9.914;2022-09-29T03:09:58;13.00;;;6.30;;
71606;SDS011;60641;53.556;9.914;2022-09-29T03:12:24;14.20;;;6.40;;
71606;SDS011;60641;53.556;9.914;2022-09-29T03:14:51;13.10;;;6.30;;
71606;SDS011;60641;53.556;9.914;2022-09-29T03:17:17;13.10;;;6.10;;
71606;SDS011;60641;53.556;9.914;2022-09-29T03:19:43;14.90;;;6.70;;
71606;SDS011;60641;53.556;9.914;2022-09-29T03:22:10;14.20;;;6.30;;
71606;SDS011;60641;53.556;9.914;2022-09-29T03:24:36;15.00;;;6.70;;
71606;SDS011;60641;53.556;9.914;2022-09-29T03:27:02;14.30;;;6.80;;
71606;SDS011;60641;53.556;9.914;2022-09-29T03:29:29;13.20;;;6.30;;
71606;SDS011;60641;53.556;9.914;2022-09-29T03:31:57;14.50;;;6.90;;
71606;SDS011;60641;53.556;9.914;2022-09-29T03:34:24;13.50;;;6.50;;
71606;SDS011;60641;53.556;9.914;2022-09-29T03:36:51;12.10;;;6.30;;
71606;SDS011;60641;53.556;9.914;2022-09-29T03:39:17;13.10;;;6.40;;
71606;SDS011;60641;53.556;9.914;2022-09-29T03:41:43;13.60;;;6.80;;
71606;SDS011;60641;53.556;9.914;2022-09-29T03:44:10;12.80;;;6.90;;
71606;SDS011;60641;53.556;9.914;2022-09-29T03:46:36;13.30;;;6.70;;
71606;SDS011;60641;53.556;9.914;2022-09-29T03:49:02;14.80;;;6.40;;
71606;SDS011;60641;53.556;9.914;2022-09-29T03:51:29;13.40;;;6.70;;
71606;SDS011;60641;53.556;9.914;2022-09-29T03:53:55;13.90;;;6.60;;
71606;SDS011;60641;53.556;9.914;2022-09-29T03:56:22;13.70;;;7.10;;
71606;SDS011;60641;53.556;9.914;2022-09-29T03:58:48;12.50;;;6.30;;
71606;SDS011;60641;53.556;9.914;2022-09-29T04:01:14;13.80;;;6.30;;
71606;SDS011;60641;53.556;9.914;2022-09-29T04:03:41;13.50;;;6.70;;
71606;SDS011;60641;53.556;9.914;2022-09-29T04:06:07;15.40;;;6.80;;
71606;SDS011;60641;53.556;9.914;2022-09-29T04:08:36;16.90;;;7.60;;
71606;SDS011;60641;53.556;9.914;2022-09-29T04:11:03;17.20;;;7.80;;
71606;SDS011;60641;53.556;9.914;2022-09-29T04:13:31;15.80;;;7.40;;
71606;SDS011;60641;53.556;9.914;2022-09-29T04:15:58;13.30;;;6.70;;
71606;SDS011;60641;53.556;9.914;2022-09-29T04:18:28;16.80;;;7.20;;
71606;SDS011;60641;53.556;9.914;2022-09-29T04:20:54;14.40;;;7.40;;
71606;SDS011;60641;53.556;9.914;2022-09-29T04:23:27;17.20;;;7.30;;
71606;SDS011;60641;53.556;9.914;2022-09-29T04:25:56;15.20;;;7.50;;
71606;SDS011;60641;53.556;9.914;2022-09-29T04:28:23;14.90;;;7.80;;
71606;SDS011;60641;53.556;9.914;2022-09-29T04:30:50;15.60;;;7.60;;
71606;SDS011;60641;53.556;9.914;2022-09-29T04:33:17;16.30;;;7.40;;
71606;SDS011;60641;53.556;9.914;2022-09-29T04:35:43;15.50;;;7.90;;
71606;SDS011;60641;53.556;9.914;2022-09-29T04:38:09;13.90;;;6.80;;
71606;SDS011;60641;53.556;9.914;2022-09-29T04:40:36;13.90;;;7.30;;
71606;SDS011;60641;53.556;9.914;2022-09-29T04:43:02;14.70;;;7.40;;
71606;SDS011;60641;53.556;9.914;2022-09-29T04:45:29;13.80;;;7.00;;
71606;SDS011;60641;53.556;9.914;2022-09-29T04:47:56;15.90;;;7.30;;
71606;SDS011;60641;53.556;9.914;2022-09-29T04:50:23;15.20;;;7.50;;
71606;SDS011;60641;53.556;9.914;2022-09-29T04:52:49;15.80;;;7.80;;
71606;SDS011;60641;53.556;9.914;2022-09-29T04:55:16;16.40;;;7.80;;
71606;SDS011;60641;53.556;9.914;2022-09-29T04:57:42;15.90;;;7.60;;
71606;SDS011;60641;53.556;9.914;2022-09-29T05:00:09;14.50;;;7.70;;
71606;SDS011;60641;53.556;9.914;2022-09-29T05:02:36;13.80;;;7.90;;
71606;SDS011;60641;53.556;9.914;2022-09-29T05:05:03;16.80;;;7.80;;
71606;SDS011;60641;53.556;9.914;2022-09-29T05:07:34;18.20;;;8.10;;
71606;SDS011;60641;53.556;9.914;2022-09-29T05:10:02;16.20;;;8.20;;
71606;SDS011;60641;53.556;9.914;2022-09-29T05:12:30;16.10;;;7.50;;
71606;SDS011;60641;53.556;9.914;2022-09-29T05:14:56;15.70;;;7.40;;
71606;SDS011;60641;53.556;9.914;2022-09-29T05:17:23;15.10;;;7.60;;
71606;SDS011;60641;53.556;9.914;2022-09-29T05:19:49;16.50;;;8.10;;
71606;SDS011;60641;53.556;9.914;2022-09-29T05:22:16;14.00;;;7.50;;
71606;SDS011;60641;53.556;9.914;2022-09-29T05:24:45;15.70;;;8.30;;
71606;SDS011;60641;53.556;9.914;2022-09-29T05:27:12;16.50;;;8.40;;
71606;SDS011;60641;53.556;9.914;2022-09-29T05:29:38;17.50;;;8.40;;
71606;SDS011;60641;53.556;9.914;2022-09-29T05:32:05;15.40;;;8.00;;
71606;SDS011;60641;53.556;9.914;2022-09-29T05:34:31;15.50;;;8.00;;
71606;SDS011;60641;53.556;9.914;2022-09-29T05:36:57;17.30;;;8.00;;
71606;SDS011;60641;53.556;9.914;2022-09-29T05:39:24;15.70;;;7.90;;
71606;SDS011;60641;53.556;9.914;2022-09-29T05:41:50;17.50;;;8.30;;
71606;SDS011;60641;53.556;9.914;2022-09-29T05:44:17;14.00;;;7.40;;
71606;SDS011;60641;53.556;9.914;2022-09-29T05:46:43;17.60;;;8.00;;
71606;SDS011;60641;53.556;9.914;2022-09-29T05:49:09;16.70;;;8.10;;
71606;SDS011;60641;53.556;9.914;2022-09-29T05:51:36;14.60;;;7.80;;
71606;SDS011;60641;53.556;9.914;2022-09-29T05:54:02;15.20;;;8.50;;
71606;SDS011;60641;53.556;9.914;2022-09-29T05:56:29;14.80;;;8.10;;
71606;SDS011;60641;53.556;9.914;2022-09-29T05:58:55;15.20;;;7.90;;
71606;SDS011;60641;53.556;9.914;2022-09-29T06:01:22;19.60;;;7.90;;
71606;SDS011;60641;53.556;9.914;2022-09-29T06:03:51;18.20;;;8.00;;
71606;SDS011;60641;53.556;9.914;2022-09-29T06:06:22;13.90;;;7.60;;
71606;SDS011;60641;53.556;9.914;2022-09-29T06:08:50;14.70;;;7.80;;
71606;SDS011;60641;53.556;9.914;2022-09-29T06:11:18;15.10;;;8.50;;
71606;SDS011;60641;53.556;9.914;2022-09-29T06:13:47;13.70;;;6.00;;
71606;SDS011;60641;53.556;9.914;2022-09-29T06:16:16;15.50;;;7.90;;
71606;SDS011;60641;53.556;9.914;2022-09-29T06:18:45;18.30;;;7.80;;
71606;SDS011;60641;53.556;9.914;2022-09-29T06:21:12;14.20;;;7.60;;
71606;SDS011;60641;53.556;9.914;2022-09-29T06:23:43;13.00;;;6.60;;
71606;SDS011;60641;53.556;9.914;2022-09-29T06:26:11;17.70;;;8.10;;
71606;SDS011;60641;53.556;9.914;2022-09-29T06:28:39;16.50;;;8.20;;
71606;SDS011;60641;53.556;9.914;2022-09-29T06:31:07;18.50;;;7.70;;
71606;SDS011;60641;53.556;9.914;2022-09-29T06:33:38;15.20;;;8.40;;
71606;SDS011;60641;53.556;9.914;2022-09-29T06:36:17;18.20;;;9.40;;
71606;SDS011;60641;53.556;9.914;2022-09-29T06:39:05;15.10;;;8.00;;
71606;SDS011;60641;53.556;9.914;2022-09-29T06:41:32;15.20;;;8.10;;
71606;SDS011;60641;53.556;9.914;2022-09-29T06:43:59;17.20;;;8.80;;
71606;SDS011;60641;53.556;9.914;2022-09-29T06:46:26;14.70;;;8.20;;
71606;SDS011;60641;53.556;9.914;2022-09-29T06:48:53;16.10;;;7.80;;
71606;SDS011;60641;53.556;9.914;2022-09-29T06:51:20;16.10;;;8.50;;
71606;SDS011;60641;53.556;9.914;2022-09-29T06:53:48;15.10;;;8.50;;
71606;SDS011;60641;53.556;9.914;2022-09-29T06:56:15;20.30;;;8.70;;
71606;SDS011;60641;53.556;9.914;2022-09-29T06:58:46;16.50;;;8.60;;
71606;SDS011;60641;53.556;9.914;2022-09-29T07:01:12;16.70;;;8.70;;
71606;SDS011;60641;53.556;9.914;2022-09-29T07:03:39;20.40;;;8.60;;
71606;SDS011;60641;53.556;9.914;2022-09-29T07:06:07;16.50;;;8.60;;
71606;SDS011;60641;53.556;9.914;2022-09-29T07:08:35;20.60;;;9.50;;
71606;SDS011;60641;53.556;9.914;2022-09-29T07:11:06;21.70;;;10.00;;
71606;SDS011;60641;53.556;9.914;2022-09-29T07:13:34;16.20;;;8.80;;
71606;SDS011;60641;53.556;9.914;2022-09-29T07:16:08;16.20;;;9.30;;
71606;SDS011;60641;53.556;9.914;2022-09-29T07:18:36;17.80;;;8.70;;
71606;SDS011;60641;53.556;9.914;2022-09-29T07:24:41;15.00;;;8.20;;
71606;SDS011;60641;53.556;9.914;2022-09-29T07:27:08;18.50;;;9.60;;
71606;SDS011;60641;53.556;9.914;2022-09-29T07:29:34;16.50;;;9.30;;
71606;SDS011;60641;53.556;9.914;2022-09-29T07:32:01;17.60;;;9.20;;
71606;SDS011;60641;53.556;9.914;2022-09-29T07:34:27;19.10;;;8.90;;
71606;SDS011;60641;53.556;9.914;2022-09-29T07:36:54;17.00;;;9.10;;
71606;SDS011;60641;53.556;9.914;2022-09-29T07:39:20;19.50;;;9.80;;
71606;SDS011;60641;53.556;9.914;2022-09-29T07:41:47;19.80;;;9.10;;
71606;SDS011;60641;53.556;9.914;2022-09-29T07:44:14;16.50;;;9.10;;
71606;SDS011;60641;53.556;9.914;2022-09-29T07:46:41;17.20;;;9.50;;
71606;SDS011;60641;53.556;9.914;2022-09-29T07:49:07;15.80;;;9.10;;
71606;SDS011;60641;53.556;9.914;2022-09-29T07:51:33;17.80;;;9.80;;
71606;SDS011;60641;53.556;9.914;2022-09-29T07:54:03;15.70;;;8.60;;
71606;SDS011;60641;53.556;9.914;2022-09-29T07:56:30;17.50;;;9.60;;
71606;SDS011;60641;53.556;9.914;2022-09-29T07:58:57;16.60;;;9.10;;
71606;SDS011;60641;53.556;9.914;2022-09-29T08:01:24;15.40;;;8.40;;
71606;SDS011;60641;53.556;9.914;2022-09-29T08:03:51;15.80;;;8.50;;
71606;SDS011;60641;53.556;9.914;2022-09-29T08:06:19;14.60;;;7.80;;
71606;SDS011;60641;53.556;9.914;2022-09-29T08:08:47;14.80;;;8.20;;
71606;SDS011;60641;53.556;9.914;2022-09-29T08:11:15;13.90;;;7.70;;
71606;SDS011;60641;53.556;9.914;2022-09-29T08:13:49;13.90;;;8.00;;
71606;SDS011;60641;53.556;9.914;2022-09-29T08:16:17;14.60;;;7.80;;
71606;SDS011;60641;53.556;9.914;2022-09-29T08:18:44;13.90;;;7.60;;
71606;SDS011;60641;53.556;9.914;2022-09-29T08:21:11;15.60;;;8.10;;
71606;SDS011;60641;53.556;9.914;2022-09-29T08:23:40;14.10;;;8.10;;
71606;SDS011;60641;53.556;9.914;2022-09-29T08:26:08;14.70;;;8.10;;
71606;SDS011;60641;53.556;9.914;2022-09-29T08:28:37;14.20;;;8.20;;
71606;SDS011;60641;53.556;9.914;2022-09-29T08:31:04;14.80;;;7.70;;
71606;SDS011;60641;53.556;9.914;2022-09-29T08:33:34;14.90;;;8.40;;
71606;SDS011;60641;53.556;9.914;2022-09-29T08:36:02;16.40;;;9.60;;
71606;SDS011;60641;53.556;9.914;2022-09-29T08:38:31;14.30;;;8.30;;
71606;SDS011;60641;53.556;9.914;2022-09-29T08:41:00;14.10;;;8.40;;
71606;SDS011;60641;53.556;9.914;2022-09-29T08:43:33;13.40;;;8.00;;
71606;SDS011;60641;53.556;9.914;2022-09-29T08:46:23;15.50;;;7.70;;
71606;SDS011;60641;53.556;9.914;2022-09-29T08:48:53;14.00;;;7.80;;
71606;SDS011;60641;53.556;9.914;2022-09-29T08:51:26;16.30;;;7.20;;
71606;SDS011;60641;53.556;9.914;2022-09-29T08:53:54;13.50;;;7.90;;
71606;SDS011;60641;53.556;9.914;2022-09-29T08:56:22;15.00;;;8.20;;
71606;SDS011;60641;53.556;9.914;2022-09-29T08:58:50;13.90;;;8.10;;
71606;SDS011;60641;53.556;9.914;2022-09-29T09:01:40;15.10;;;7.70;;
71606;SDS011;60641;53.556;9.914;2022-09-29T09:10:29;18.70;;;9.10;;
71606;SDS011;60641;53.556;9.914;2022-09-29T09:16:27;18.50;;;10.90;;
71606;SDS011;60641;53.556;9.914;2022-09-29T09:22:54;18.00;;;10.70;;
71606;SDS011;60641;53.556;9.914;2022-09-29T09:24:58;18.10;;;10.80;;
71606;SDS011;60641;53.556;9.914;2022-09-29T09:27:30;17.80;;;9.90;;
71606;SDS011;60641;53.556;9.914;2022-09-29T09:30:02;17.70;;;10.00;;
71606;SDS011;60641;53.556;9.914;2022-09-29T09:32:32;17.00;;;8.90;;
71606;SDS011;60641;53.556;9.914;2022-09-29T09:37:42;13.70;;;8.20;;
71606;SDS011;60641;53.556;9.914;2022-09-29T09:50:58;13.10;;;6.90;;
71606;SDS011;60641;53.556;9.914;2022-09-29T09:53:34;14.90;;;7.50;;
71606;SDS011;60641;53.556;9.914;2022-09-29T09:56:06;12.50;;;7.30;;
71606;SDS011;60641;53.556;9.914;2022-09-29T10:01:18;12.70;;;7.20;;
71606;SDS011;60641;53.556;9.914;2022-09-29T10:03:45;15.40;;;7.60;;
71606;SDS011;60641;53.556;9.914;2022-09-29T10:06:11;16.60;;;7.70;;
71606;SDS011;60641;53.556;9.914;2022-09-29T10:08:38;14.20;;;7.90;;
71606;SDS011;60641;53.556;9.914;2022-09-29T10:13:53;13.90;;;7.20;;
71606;SDS011;60641;53.556;9.914;2022-09-29T10:16:29;13.50;;;7.30;;
71606;SDS011;60641;53.556;9.914;2022-09-29T10:19:00;14.40;;;7.80;;
71606;SDS011;60641;53.556;9.914;2022-09-29T10:23:56;13.70;;;7.30;;
71606;SDS011;60641;53.556;9.914;2022-09-29T10:26:26;12.00;;;6.50;;
71606;SDS011;60641;53.556;9.914;2022-09-29T10:29:02;12.60;;;7.10;;
71606;SDS011;60641;53.556;9.914;2022-09-29T10:31:30;13.20;;;6.40;;
71606;SDS011;60641;53.556;9.914;2022-09-29T10:42:26;10.10;;;5.20;;
71606;SDS011;60641;53.556;9.914;2022-09-29T10:50:26;10.50;;;5.40;;
71606;SDS011;60641;53.556;9.914;2022-09-29T10:52:57;11.80;;;5.90;;
71606;SDS011;60641;53.556;9.914;2022-09-29T10:55:26;11.70;;;6.00;;
71606;SDS011;60641;53.556;9.914;2022-09-29T10:57:55;13.30;;;5.70;;
71606;SDS011;60641;53.556;9.914;2022-09-29T11:00:27;9.60;;;4.80;;
71606;SDS011;60641;53.556;9.914;2022-09-29T11:02:57;11.40;;;4.50;;
71606;SDS011;60641;53.556;9.914;2022-09-29T11:05:29;11.40;;;5.80;;
71606;SDS011;60641;53.556;9.914;2022-09-29T11:07:55;13.00;;;6.30;;
71606;SDS011;60641;53.556;9.914;2022-09-29T11:12:54;11.10;;;5.60;;
71606;SDS011;60641;53.556;9.914;2022-09-29T11:15:25;12.30;;;6.30;;
71606;SDS011;60641;53.556;9.914;2022-09-29T11:17:53;13.80;;;6.60;;
71606;SDS011;60641;53.556;9.914;2022-09-29T11:20:21;12.90;;;5.90;;
71606;SDS011;60641;53.556;9.914;2022-09-29T11:25:48;12.80;;;6.20;;
71606;SDS011;60641;53.556;9.914;2022-09-29T11:30:55;13.20;;;6.50;;
71606;SDS011;60641;53.556;9.914;2022-09-29T11:33:32;14.00;;;7.00;;
71606;SDS011;60641;53.556;9.914;2022-09-29T11:36:20;12.50;;;6.50;;
71606;SDS011;60641;53.556;9.914;2022-09-29T11:39:07;12.50;;;6.80;;
71606;SDS011;60641;53.556;9.914;2022-09-29T11:44:28;12.60;;;6.90;;
71606;SDS011;60641;53.556;9.914;2022-09-29T12:01:17;12.70;;;6.10;;
71606;SDS011;60641;53.556;9.914;2022-09-29T12:04:00;14.50;;;6.60;;
71606;SDS011;60641;53.556;9.914;2022-09-29T12:14:34;13.60;;;6.70;;
71606;SDS011;60641;53.556;9.914;2022-09-29T12:17:08;14.20;;;6.80;;
71606;SDS011;60641;53.556;9.914;2022-09-29T12:19:38;17.00;;;6.90;;
71606;SDS011;60641;53.556;9.914;2022-09-29T12:22:07;12.50;;;6.30;;
71606;SDS011;60641;53.556;9.914;2022-09-29T12:24:56;14.90;;;6.80;;
71606;SDS011;60641;53.556;9.914;2022-09-29T12:32:28;12.80;;;4.90;;
71606;SDS011;60641;53.556;9.914;2022-09-29T12:40:48;8.30;;;4.00;;
71606;SDS011;60641;53.556;9.914;2022-09-29T12:51:16;8.10;;;3.60;;
71606;SDS011;60641;53.556;9.914;2022-09-29T12:56:54;8.50;;;3.50;;
71606;SDS011;60641;53.556;9.914;2022-09-29T13:02:20;8.30;;;3.50;;
71606;SDS011;60641;53.556;9.914;2022-09-29T13:24:11;9.00;;;4.20;;
71606;SDS011;60641;53.556;9.914;2022-09-29T13:27:05;9.50;;;4.40;;
71606;SDS011;60641;53.556;9.914;2022-09-29T13:30:04;12.10;;;4.40;;
71606;SDS011;60641;53.556;9.914;2022-09-29T13:32:37;10.50;;;4.70;;
71606;SDS011;60641;53.556;9.914;2022-09-29T13:35:09;9.30;;;4.60;;
71606;SDS011;60641;53.556;9.914;2022-09-29T13:38:23;8.60;;;4.90;;
71606;SDS011;60641;53.556;9.914;2022-09-29T13:40:29;9.80;;;4.80;;
71606;SDS011;60641;53.556;9.914;2022-09-29T13:43:01;8.50;;;4.20;;
71606;SDS011;60641;53.556;9.914;2022-09-29T13:48:00;8.90;;;4.50;;
71606;SDS011;60641;53.556;9.914;2022-09-29T13:50:51;9.20;;;5.00;;
71606;SDS011;60641;53.556;9.914;2022-09-29T13:55:52;9.10;;;5.30;;
71606;SDS011;60641;53.556;9.914;2022-09-29T14:00:48;10.00;;;5.30;;
71606;SDS011;60641;53.556;9.914;2022-09-29T14:03:23;9.30;;;5.40;;
71606;SDS011;60641;53.556;9.914;2022-09-29T14:06:40;10.40;;;5.70;;
71606;SDS011;60641;53.556;9.914;2022-09-29T14:14:07;11.10;;;6.70;;
71606;SDS011;60641;53.556;9.914;2022-09-29T14:16:46;11.70;;;5.90;;
71606;SDS011;60641;53.556;9.914;2022-09-29T14:21:55;11.00;;;5.80;;
71606;SDS011;60641;53.556;9.914;2022-09-29T14:29:49;11.80;;;6.50;;
71606;SDS011;60641;53.556;9.914;2022-09-29T14:32:19;11.20;;;6.30;;
71606;SDS011;60641;53.556;9.914;2022-09-29T14:34:47;10.10;;;5.90;;
71606;SDS011;60641;53.556;9.914;2022-09-29T14:37:18;10.50;;;6.10;;
71606;SDS011;60641;53.556;9.914;2022-09-29T14:39:47;10.30;;;6.10;;
71606;SDS011;60641;53.556;9.914;2022-09-29T14:42:33;10.00;;;5.60;;
71606;SDS011;60641;53.556;9.914;2022-09-29T14:45:01;10.70;;;6.00;;
71606;SDS011;60641;53.556;9.914;2022-09-29T14:50:48;9.90;;;5.70;;
71606;SDS011;60641;53.556;9.914;2022-09-29T14:56:50;10.40;;;5.90;;
71606;SDS011;60641;53.556;9.914;2022-09-29T15:02:28;10.20;;;5.60;;
71606;SDS011;60641;53.556;9.914;2022-09-29T15:04:56;9.90;;;5.40;;
71606;SDS011;60641;53.556;9.914;2022-09-29T15:07:24;11.80;;;5.70;;
71606;SDS011;60641;53.556;9.914;2022-09-29T15:09:56;11.00;;;5.80;;
71606;SDS011;60641;53.556;9.914;2022-09-29T15:12:25;11.70;;;5.50;;
71606;SDS011;60641;53.556;9.914;2022-09-29T15:14:53;10.70;;;5.70;;
71606;SDS011;60641;53.556;9.914;2022-09-29T15:20:02;9.90;;;5.60;;
71606;SDS011;60641;53.556;9.914;2022-09-29T15:25:43;10.50;;;5.50;;
71606;SDS011;60641;53.556;9.914;2022-09-29T15:31:00;9.70;;;5.20;;
71606;SDS011;60641;53.556;9.914;2022-09-29T15:33:29;11.60;;;5.30;;
71606;SDS011;60641;53.556;9.914;2022-09-29T15:36:00;11.10;;;5.90;;
71606;SDS011;60641;53.556;9.914;2022-09-29T15:38:33;10.70;;;5.70;;
71606;SDS011;60641;53.556;9.914;2022-09-29T15:41:04;10.60;;;5.50;;
71606;SDS011;60641;53.556;9.914;2022-09-29T15:43:39;11.00;;;5.60;;
71606;SDS011;60641;53.556;9.914;2022-09-29T15:46:14;11.50;;;5.50;;
71606;SDS011;60641;53.556;9.914;2022-09-29T15:49:05;14.50;;;5.50;;
71606;SDS011;60641;53.556;9.914;2022-09-29T15:51:31;10.30;;;5.50;;
71606;SDS011;60641;53.556;9.914;2022-09-29T15:53:58;10.50;;;5.70;;
71606;SDS011;60641;53.556;9.914;2022-09-29T15:56:25;10.50;;;5.50;;
71606;SDS011;60641;53.556;9.914;2022-09-29T15:58:52;10.40;;;5.70;;
71606;SDS011;60641;53.556;9.914;2022-09-29T16:01:19;11.60;;;5.40;;
71606;SDS011;60641;53.556;9.914;2022-09-29T16:08:46;12.10;;;6.10;;
71606;SDS011;60641;53.556;9.914;2022-09-29T16:11:21;11.60;;;5.80;;
71606;SDS011;60641;53.556;9.914;2022-09-29T16:13:52;11.20;;;5.90;;
71606;SDS011;60641;53.556;9.914;2022-09-29T16:16:31;9.90;;;5.70;;
71606;SDS011;60641;53.556;9.914;2022-09-29T16:19:01;11.50;;;5.70;;
71606;SDS011;60641;53.556;9.914;2022-09-29T16:21:32;11.60;;;5.80;;
71606;SDS011;60641;53.556;9.914;2022-09-29T16:24:12;9.90;;;5.60;;
71606;SDS011;60641;53.556;9.914;2022-09-29T16:29:32;11.30;;;5.80;;
71606;SDS011;60641;53.556;9.914;2022-09-29T16:32:34;9.60;;;5.30;;
71606;SDS011;60641;53.556;9.914;2022-09-29T16:38:08;10.80;;;5.60;;
71606;SDS011;60641;53.556;9.914;2022-09-29T16:40:38;12.00;;;6.30;;
71606;SDS011;60641;53.556;9.914;2022-09-29T16:43:05;11.20;;;6.40;;
71606;SDS011;60641;53.556;9.914;2022-09-29T16:45:53;11.80;;;5.50;;
71606;SDS011;60641;53.556;9.914;2022-09-29T16:48:22;12.00;;;6.00;;
71606;SDS011;60641;53.556;9.914;2022-09-29T16:50:52;10.70;;;5.90;;
71606;SDS011;60641;53.556;9.914;2022-09-29T16:53:29;13.50;;;6.10;;
71606;SDS011;60641;53.556;9.914;2022-09-29T16:55:57;11.70;;;5.50;;
71606;SDS011;60641;53.556;9.914;2022-09-29T16:58:29;11.60;;;6.10;;
71606;SDS011;60641;53.556;9.914;2022-09-29T17:00:56;11.60;;;5.90;;
71606;SDS011;60641;53.556;9.914;2022-09-29T17:03:23;13.50;;;6.20;;
71606;SDS011;60641;53.556;9.914;2022-09-29T17:05:49;11.90;;;6.60;;
71606;SDS011;60641;53.556;9.914;2022-09-29T17:10:46;12.60;;;6.00;;
71606;SDS011;60641;53.556;9.914;2022-09-29T17:13:14;11.90;;;5.90;;
71606;SDS011;60641;53.556;9.914;2022-09-29T17:15:42;11.40;;;6.20;;
71606;SDS011;60641;53.556;9.914;2022-09-29T17:18:12;11.90;;;6.20;;
71606;SDS011;60641;53.556;9.914;2022-09-29T17:20:39;11.90;;;6.00;;
71606;SDS011;60641;53.556;9.914;2022-09-29T17:23:06;11.90;;;6.00;;
71606;SDS011;60641;53.556;9.914;2022-09-29T17:25:34;10.60;;;5.20;;
71606;SDS011;60641;53.556;9.914;2022-09-29T17:28:01;14.10;;;6.50;;
71606;SDS011;60641;53.556;9.914;2022-09-29T17:30:38;13.40;;;7.10;;
71606;SDS011;60641;53.556;9.914;2022-09-29T17:33:05;12.60;;;6.80;;
71606;SDS011;60641;53.556;9.914;2022-09-29T17:35:35;12.40;;;5.80;;
71606;SDS011;60641;53.556;9.914;2022-09-29T17:38:03;12.30;;;6.20;;
71606;SDS011;60641;53.556;9.914;2022-09-29T17:40:36;11.80;;;6.30;;
71606;SDS011;60641;53.556;9.914;2022-09-29T17:43:04;13.20;;;6.20;;
71606;SDS011;60641;53.556;9.914;2022-09-29T17:45:30;11.40;;;5.80;;
71606;SDS011;60641;53.556;9.914;2022-09-29T17:48:00;10.90;;;6.10;;
71606;SDS011;60641;53.556;9.914;2022-09-29T17:53:02;11.50;;;5.70;;
71606;SDS011;60641;53.556;9.914;2022-09-29T17:55:29;10.80;;;5.50;;
71606;SDS011;60641;53.556;9.914;2022-09-29T17:57:57;10.80;;;5.70;;
71606;SDS011;60641;53.556;9.914;2022-09-29T18:00:28;11.70;;;5.60;;
71606;SDS011;60641;53.556;9.914;2022-09-29T18:03:10;12.60;;;5.80;;
71606;SDS011;60641;53.556;9.914;2022-09-29T18:05:40;11.30;;;5.60;;
71606;SDS011;60641;53.556;9.914;2022-09-29T18:08:14;12.10;;;6.10;;
71606;SDS011;60641;53.556;9.914;2022-09-29T18:13:11;11.00;;;5.20;;
71606;SDS011;60641;53.556;9.914;2022-09-29T18:15:38;11.40;;;5.70;;
71606;SDS011;60641;53.556;9.914;2022-09-29T18:18:04;10.90;;;5.60;;
71606;SDS011;60641;53.556;9.914;2022-09-29T18:20:33;12.00;;;5.60;;
71606;SDS011;60641;53.556;9.914;2022-09-29T18:23:05;11.20;;;5.60;;
71606;SDS011;60641;53.556;9.914;2022-09-29T18:25:31;9.80;;;5.50;;
71606;SDS011;60641;53.556;9.914;2022-09-29T18:27:59;10.20;;;5.60;;
71606;SDS011;60641;53.556;9.914;2022-09-29T18:30:27;11.00;;;5.40;;
71606;SDS011;60641;53.556;9.914;2022-09-29T18:32:55;11.30;;;5.60;;
71606;SDS011;60641;53.556;9.914;2022-09-29T18:35:28;13.30;;;6.10;;
71606;SDS011;60641;53.556;9.914;2022-09-29T18:37:56;10.70;;;5.70;;
71606;SDS011;60641;53.556;9.914;2022-09-29T18:40:23;11.20;;;5.30;;
71606;SDS011;60641;53.556;9.914;2022-09-29T18:42:51;10.20;;;5.10;;
71606;SDS011;60641;53.556;9.914;2022-09-29T18:45:19;9.60;;;5.10;;
71606;SDS011;60641;53.556;9.914;2022-09-29T18:47:49;10.00;;;5.50;;
71606;SDS011;60641;53.556;9.914;2022-09-29T18:50:17;9.80;;;5.20;;
71606;SDS011;60641;53.556;9.914;2022-09-29T18:52:45;11.10;;;5.90;;
71606;SDS011;60641;53.556;9.914;2022-09-29T18:55:13;13.80;;;6.10;;